Ogdensburg, NY

1:00 PM EDT on September 02, 2015 (GMT -0400)
2nd ward | | Change Station
CLOSE
Current Station
Personal Weather Station
Location: Ogdensburg, NY
Elevation: 292 ft
Nearby Weather Stations

Elev 292 ft 44.69 °N, 75.50 °W | Updated 18 minutes ago

Overcast
Overcast
80.6 °F
Feels Like 85 °F
N
3.7
Wind Variable Wind from SW

Today
High -- | Low -- °F
--% Chance of Precip.
Yesterday
High -- | Low -- °F
Precip. -- in
6:25 AM 7:37 PM
Waning Gibbous, 79% visible
Pressure 29.98 in
Visibility 5.0 miles
Clouds Overcast 1500 ft
Heat Index 85 °F
Dew Point 74 °F
Humidity 79%
Rainfall 0.00 in
Snow Depth Not available.
UV 3 out of 12
Pollen 9.10 out of 12
Air Quality Not available.
Flu Activity Not available.
METAR KMSS 021653Z AUTO 25006KT 5SM HZ OVC015 24/20 A2998 RMK AO2 SLP152 T02440200
Pressure 29.98 in
Visibility 5.0 miles
Clouds Overcast 1500 ft
Heat Index 85 °F
Dew Point 74 °F
Humidity 79%
Rainfall 0.00 in
Snow Depth Not available.
UV 3 out of 12
Pollen 9.10 out of 12
Air Quality Not available.
Flu Activity Not available.
METAR KMSS 021653Z AUTO 25006KT 5SM HZ OVC015 24/20 A2998 RMK AO2 SLP152 T02440200

10-Day Weather Forecast

×

Almanac

Astronomy

Sep. 02, 2015 Rise Set
Actual Time
Civil Twilight
Nautical Twilight
Astronomical Twilight
Moon
Length of Visible Light
Length of Day
Tomorrow will be .
, % of the Moon is Illuminated

Today's Extremes

State Highs State Lows

Community

WunderPhotos

Upload Photos

1,851,783 photos uploaded!

WunderBlogs® & News

Nearby

Air Quality

  Air Quality AQ Index Pollutant
Not available.

Snow Depth

Station Depth Elevation

Earthquake Activity

City Distance Mag. Time & Date
Minimum magnitude displayed is 2.5.

Coastal Water Temperatures

Place Temperature

Stations

Nearby Weather Stations

Station Location Temp. Windchill Dew Point Humidity Wind Precip. Elev Updated Type